Time;durP1;ratioP1;P1;durP2;ratioP2;P2;SDS_P1;SDS_P2;PMS_P1;PMS_P2;Temp;Humidity;BMP_temperature;BMP_pressure;BME280_temperature;BME280_humidity;BME280_pressure;Samples;Min_cycle;Max_cycle;Signal;HPM_P1;HPM_P2
2021/05/03 00:01:36;;;;;;;8.02;3.80;;;;;;;;;;5094927;28;20127;-76
2021/05/03 00:04:01;;;;;;;6.57;3.72;;;;;;;;;;5094809;28;20111;-76
2021/05/03 00:06:27;;;;;;;5.18;3.13;;;;;;;;;;5093327;28;20365;-76
2021/05/03 00:08:52;;;;;;;4.70;2.97;;;;;;;;;;5094599;28;20119;-76
2021/05/03 00:11:18;;;;;;;3.30;2.42;;;;;;;;;;5093238;28;20058;-76
2021/05/03 00:13:43;;;;;;;4.95;3.13;;;;;;;;;;5094631;28;20036;-76
2021/05/03 00:16:09;;;;;;;6.32;2.90;;;;;;;;;;5094726;28;20165;-76
2021/05/03 00:18:34;;;;;;;4.05;3.10;;;;;;;;;;5094650;28;20059;-76
2021/05/03 00:21:01;;;;;;;6.32;3.30;;;;;;;;;;5094679;28;20378;-75
2021/05/03 00:23:26;;;;;;;4.72;3.33;;;;;;;;;;5094303;28;20032;-76
2021/05/03 00:25:52;;;;;;;5.20;2.95;;;;;;;;;;5093673;28;20039;-76
2021/05/03 00:28:17;;;;;;;4.93;3.13;;;;;;;;;;5094318;28;20030;-76
2021/05/03 00:30:43;;;;;;;3.83;2.72;;;;;;;;;;5094002;28;20111;-76
2021/05/03 00:33:08;;;;;;;3.20;2.67;;;;;;;;;;5093843;28;20093;-76
2021/05/03 00:35:34;;;;;;;3.40;2.88;;;;;;;;;;5094312;28;20036;-76
2021/05/03 00:38:00;;;;;;;4.53;3.05;;;;;;;;;;5094110;28;20043;-76
2021/05/03 00:40:27;;;;;;;4.47;3.45;;;;;;;;;;5093620;28;20385;-76
2021/05/03 00:42:53;;;;;;;4.72;3.38;;;;;;;;;;5093897;28;20367;-76
2021/05/03 00:45:20;;;;;;;4.38;3.10;;;;;;;;;;5092948;28;20044;-76
2021/05/03 00:47:46;;;;;;;6.22;3.20;;;;;;;;;;5092701;28;20489;-76
2021/05/03 00:50:13;;;;;;;7.05;3.28;;;;;;;;;;5092525;28;20028;-76
2021/05/03 00:52:38;;;;;;;7.40;3.70;;;;;;;;;;5092709;28;20035;-76
2021/05/03 00:55:05;;;;;;;3.63;2.90;;;;;;;;;;5092775;28;20477;-75
2021/05/03 00:57:31;;;;;;;8.15;3.15;;;;;;;;;;5093805;28;20481;-76
2021/05/03 00:59:56;;;;;;;4.97;3.65;;;;;;;;;;5093865;28;20089;-75
2021/05/03 01:02:22;;;;;;;5.20;3.15;;;;;;;;;;5093965;28;20035;-76
2021/05/03 01:04:48;;;;;;;5.55;3.20;;;;;;;;;;5093709;28;20043;-76
2021/05/03 01:07:14;;;;;;;4.40;3.33;;;;;;;;;;5092767;28;20036;-76
2021/05/03 01:09:39;;;;;;;6.10;3.22;;;;;;;;;;5093738;28;20040;-76
2021/05/03 01:12:05;;;;;;;6.05;3.58;;;;;;;;;;5092336;28;20039;-76
2021/05/03 01:14:31;;;;;;;5.90;3.47;;;;;;;;;;5093854;28;20035;-76
2021/05/03 01:16:56;;;;;;;4.90;3.65;;;;;;;;;;5093621;28;20082;-76
2021/05/03 01:19:22;;;;;;;4.85;3.47;;;;;;;;;;5091956;28;20385;-77
2021/05/03 01:21:49;;;;;;;4.40;3.30;;;;;;;;;;5093321;28;20028;-76
2021/05/03 01:24:16;;;;;;;5.60;3.67;;;;;;;;;;5093589;28;20546;-75
2021/05/03 01:26:41;;;;;;;6.78;3.80;;;;;;;;;;5093459;28;20123;-75
2021/05/03 01:29:07;;;;;;;6.00;3.75;;;;;;;;;;5093438;28;20055;-75
2021/05/03 01:31:33;;;;;;;8.73;3.40;;;;;;;;;;5092294;28;20044;-75
2021/05/03 01:34:05;;;;;;;6.07;4.00;;;;;;;;;;5093265;28;20040;-76
2021/05/03 01:36:34;;;;;;;5.88;3.67;;;;;;;;;;5093043;28;20032;-76
2021/05/03 01:39:00;;;;;;;9.38;3.65;;;;;;;;;;5093335;28;20040;-75
2021/05/03 01:41:25;;;;;;;4.47;3.25;;;;;;;;;;5091931;28;20059;-76
2021/05/03 01:43:50;;;;;;;4.13;3.17;;;;;;;;;;5093315;28;20035;-75
2021/05/03 01:46:16;;;;;;;7.63;3.28;;;;;;;;;;5093222;28;20032;-75
2021/05/03 01:48:42;;;;;;;4.75;3.17;;;;;;;;;;5093195;28;20032;-75
2021/05/03 01:51:08;;;;;;;4.47;3.33;;;;;;;;;;5092667;28;20482;-75
2021/05/03 01:53:33;;;;;;;5.13;3.70;;;;;;;;;;5093138;28;20040;-76
2021/05/03 01:55:59;;;;;;;6.20;3.88;;;;;;;;;;5091814;28;20035;-75
2021/05/03 01:58:26;;;;;;;5.47;3.60;;;;;;;;;;5091929;28;20386;-75
2021/05/03 02:00:52;;;;;;;5.00;3.45;;;;;;;;;;5093164;28;20397;-75
2021/05/03 02:03:21;;;;;;;4.90;4.18;;;;;;;;;;5092939;28;20389;-76
2021/05/03 02:05:47;;;;;;;5.15;3.85;;;;;;;;;;5092760;28;20541;-75
2021/05/03 02:08:12;;;;;;;4.38;3.78;;;;;;;;;;5093158;28;20119;-75
2021/05/03 02:10:38;;;;;;;5.18;4.22;;;;;;;;;;5092918;28;20062;-75
2021/05/03 02:13:04;;;;;;;6.43;3.60;;;;;;;;;;5093051;28;20081;-75
2021/05/03 02:15:31;;;;;;;6.22;3.55;;;;;;;;;;5091316;28;20036;-75
2021/05/03 02:17:56;;;;;;;4.30;3.10;;;;;;;;;;5092533;28;20393;-75
2021/05/03 02:20:22;;;;;;;4.80;3.25;;;;;;;;;;5096106;28;20036;-75
2021/05/03 02:22:48;;;;;;;5.65;3.38;;;;;;;;;;5096881;28;20061;-75
2021/05/03 02:25:14;;;;;;;4.63;3.42;;;;;;;;;;5097084;28;20039;-75
2021/05/03 02:27:39;;;;;;;4.93;3.95;;;;;;;;;;5096730;28;20077;-75
2021/05/03 02:30:07;;;;;;;9.27;4.05;;;;;;;;;;5096504;28;20439;-75
2021/05/03 02:32:36;;;;;;;8.00;4.00;;;;;;;;;;5096434;28;20047;-75
2021/05/03 02:35:04;;;;;;;6.03;3.85;;;;;;;;;;5096645;28;20081;-75
2021/05/03 02:37:29;;;;;;;5.70;3.83;;;;;;;;;;5096075;28;20028;-75
2021/05/03 02:39:55;;;;;;;9.40;3.95;;;;;;;;;;5096584;28;20044;-75
2021/05/03 02:42:20;;;;;;;4.88;3.78;;;;;;;;;;5094681;28;20048;-75
2021/05/03 02:44:46;;;;;;;4.82;4.07;;;;;;;;;;5095202;28;20036;-75
2021/05/03 02:47:11;;;;;;;5.05;3.65;;;;;;;;;;5096136;28;20097;-75
2021/05/03 02:49:37;;;;;;;4.68;3.45;;;;;;;;;;5096301;28;20032;-75
2021/05/03 02:52:03;;;;;;;5.43;4.15;;;;;;;;;;5094883;28;20036;-74
2021/05/03 02:54:29;;;;;;;5.20;3.60;;;;;;;;;;5096313;28;20601;-75
2021/05/03 02:56:54;;;;;;;4.53;3.53;;;;;;;;;;5094033;28;20149;-75
2021/05/03 02:59:20;;;;;;;6.03;4.00;;;;;;;;;;5076069;28;20442;-75
2021/05/03 03:01:46;;;;;;;4.65;4.13;;;;;;;;;;5075658;28;20409;-75
2021/05/03 03:04:11;;;;;;;5.32;3.70;;;;;;;;;;5075758;28;20378;-74
2021/05/03 03:06:37;;;;;;;7.53;4.25;;;;;;;;;;5075731;28;20112;-74
2021/05/03 03:09:04;;;;;;;6.13;3.63;;;;;;;;;;5075898;28;20142;-75
2021/05/03 03:11:30;;;;;;;6.85;4.25;;;;;;;;;;5094317;28;20043;-74
2021/05/03 03:13:56;;;;;;;4.53;3.45;;;;;;;;;;5094694;28;20112;-74
2021/05/03 03:16:22;;;;;;;4.93;3.63;;;;;;;;;;5095293;28;20120;-75
2021/05/03 03:18:48;;;;;;;4.57;3.88;;;;;;;;;;5094623;28;20389;-75
2021/05/03 03:21:15;;;;;;;8.07;4.82;;;;;;;;;;5094560;28;20074;-75
2021/05/03 03:23:40;;;;;;;8.55;4.65;;;;;;;;;;5095673;28;20100;-74
2021/05/03 03:26:05;;;;;;;5.72;3.97;;;;;;;;;;5095184;28;20414;-74
2021/05/03 03:28:31;;;;;;;5.18;4.30;;;;;;;;;;5095558;28;20036;-76
2021/05/03 03:30:56;;;;;;;5.55;4.20;;;;;;;;;;5095390;28;20038;-73
2021/05/03 03:33:22;;;;;;;6.68;4.10;;;;;;;;;;5095376;28;20036;-73
2021/05/03 03:35:47;;;;;;;5.25;3.90;;;;;;;;;;5095275;28;20016;-74
2021/05/03 03:38:12;;;;;;;5.38;4.30;;;;;;;;;;5095236;28;20040;-73
2021/05/03 03:40:38;;;;;;;11.85;5.35;;;;;;;;;;5094958;28;20512;-75
2021/05/03 03:43:03;;;;;;;13.20;4.43;;;;;;;;;;5094099;28;20494;-75
2021/05/03 03:45:29;;;;;;;6.93;4.85;;;;;;;;;;5095245;28;20040;-76
2021/05/03 03:47:54;;;;;;;6.13;4.07;;;;;;;;;;5095091;28;20115;-75
2021/05/03 03:50:19;;;;;;;4.75;3.83;;;;;;;;;;5094856;28;20056;-75
2021/05/03 03:52:45;;;;;;;4.85;4.18;;;;;;;;;;5094955;28;20619;-74
2021/05/03 03:55:11;;;;;;;10.15;5.22;;;;;;;;;;5095063;28;20032;-74
2021/05/03 03:57:37;;;;;;;7.15;4.80;;;;;;;;;;5094535;28;20036;-75
2021/05/03 04:00:04;;;;;;;5.68;4.88;;;;;;;;;;5094884;28;20028;-75
2021/05/03 04:02:33;;;;;;;5.65;4.57;;;;;;;;;;5094983;28;20058;-74
2021/05/03 04:10:37;;;;;;;8.25;5.63;;;;;;;;;;5094734;28;20391;-75
2021/05/03 04:13:35;;;;;;;9.18;6.57;;;;;;;;;;5094451;28;20122;-75
2021/05/03 04:26:37;;;;;;;8.52;5.57;;;;;;;;;;5094461;28;20473;-75
2021/05/03 04:29:03;;;;;;;7.78;5.75;;;;;;;;;;5094278;28;20422;-75
2021/05/03 04:31:29;;;;;;;8.77;6.10;;;;;;;;;;5094154;28;20421;-75
2021/05/03 04:33:54;;;;;;;9.77;6.20;;;;;;;;;;5094091;28;20032;-75
2021/05/03 04:36:20;;;;;;;8.10;5.82;;;;;;;;;;5094421;28;20089;-75
2021/05/03 04:38:46;;;;;;;8.20;5.60;;;;;;;;;;5094019;28;20031;-75
2021/05/03 04:41:11;;;;;;;7.60;5.25;;;;;;;;;;5093504;28;20044;-75
2021/05/03 04:43:37;;;;;;;7.05;5.53;;;;;;;;;;5093394;28;20127;-75
2021/05/03 04:46:03;;;;;;;8.07;5.38;;;;;;;;;;5094049;28;20107;-75
2021/05/03 04:48:29;;;;;;;6.45;4.95;;;;;;;;;;5094054;28;20504;-75
2021/05/03 04:50:55;;;;;;;7.43;5.95;;;;;;;;;;5094130;28;20028;-75
2021/05/03 04:53:21;;;;;;;10.90;5.55;;;;;;;;;;5093834;28;20028;-75
2021/05/03 04:55:46;;;;;;;7.55;5.65;;;;;;;;;;5093961;28;20043;-75
2021/05/03 04:58:12;;;;;;;8.48;6.25;;;;;;;;;;5093491;28;20443;-75
2021/05/03 05:00:38;;;;;;;7.43;5.43;;;;;;;;;;5093686;28;20078;-75
2021/05/03 05:03:03;;;;;;;8.35;6.38;;;;;;;;;;5093701;28;20036;-75
2021/05/03 05:05:29;;;;;;;6.97;5.00;;;;;;;;;;5094008;28;20040;-75
2021/05/03 05:07:55;;;;;;;8.23;5.72;;;;;;;;;;5093782;28;20035;-75
2021/05/03 05:10:21;;;;;;;6.40;5.30;;;;;;;;;;5093586;28;20032;-75
2021/05/03 05:12:47;;;;;;;7.68;5.45;;;;;;;;;;5093523;28;20035;-75
2021/05/03 05:15:13;;;;;;;6.63;5.70;;;;;;;;;;5092315;28;20042;-75
2021/05/03 05:17:38;;;;;;;6.22;5.10;;;;;;;;;;5093220;28;20024;-75
2021/05/03 05:20:05;;;;;;;7.00;4.97;;;;;;;;;;5093496;28;20035;-75
2021/05/03 05:22:30;;;;;;;8.57;5.43;;;;;;;;;;5092471;28;20036;-75
2021/05/03 05:24:59;;;;;;;6.38;5.15;;;;;;;;;;5093655;28;20036;-75
2021/05/03 05:27:24;;;;;;;8.48;5.60;;;;;;;;;;5093262;28;20035;-75
2021/05/03 05:29:50;;;;;;;7.38;5.05;;;;;;;;;;5092017;28;20527;-75
2021/05/03 05:32:15;;;;;;;5.70;5.07;;;;;;;;;;5093301;28;20164;-75
2021/05/03 05:34:40;;;;;;;7.80;5.80;;;;;;;;;;5093479;28;20031;-75
2021/05/03 05:37:06;;;;;;;8.90;5.85;;;;;;;;;;5091675;28;20044;-75
2021/05/03 05:39:31;;;;;;;9.88;6.07;;;;;;;;;;5092373;28;20046;-75
2021/05/03 05:41:56;;;;;;;12.13;5.30;;;;;;;;;;5093165;28;20044;-75
2021/05/03 05:44:22;;;;;;;9.10;5.30;;;;;;;;;;5093091;28;20458;-75
2021/05/03 05:46:48;;;;;;;5.57;4.47;;;;;;;;;;5092753;28;20112;-75
2021/05/03 05:49:15;;;;;;;6.68;4.97;;;;;;;;;;5093450;28;20040;-75
2021/05/03 05:51:41;;;;;;;10.80;4.90;;;;;;;;;;5093102;28;20079;-76
2021/05/03 05:54:07;;;;;;;9.75;5.25;;;;;;;;;;5094175;28;20036;-75
2021/05/03 05:56:32;;;;;;;7.28;5.68;;;;;;;;;;5097199;28;20039;-76
2021/05/03 05:58:58;;;;;;;7.85;4.90;;;;;;;;;;5097072;28;20059;-75
2021/05/03 06:01:24;;;;;;;9.80;5.30;;;;;;;;;;5096973;28;20032;-76
2021/05/03 06:03:50;;;;;;;6.70;4.20;;;;;;;;;;5097402;28;20020;-75
2021/05/03 06:06:16;;;;;;;8.00;4.88;;;;;;;;;;5096926;28;20102;-75
2021/05/03 06:08:41;;;;;;;7.07;4.38;;;;;;;;;;5095906;28;20423;-76
2021/05/03 06:11:07;;;;;;;6.30;4.85;;;;;;;;;;5097191;28;20059;-75
2021/05/03 06:13:32;;;;;;;7.97;4.88;;;;;;;;;;5095615;28;20040;-75
2021/05/03 06:15:57;;;;;;;9.10;4.82;;;;;;;;;;5096190;28;20036;-76
2021/05/03 06:18:23;;;;;;;6.57;4.57;;;;;;;;;;5096795;28;20066;-75
2021/05/03 06:20:48;;;;;;;11.13;4.25;;;;;;;;;;5097050;28;20036;-75
2021/05/03 06:23:14;;;;;;;5.50;4.90;;;;;;;;;;5096909;28;20122;-75
2021/05/03 06:25:40;;;;;;;7.95;5.05;;;;;;;;;;5097068;28;20028;-75
2021/05/03 06:28:07;;;;;;;19.65;6.18;;;;;;;;;;5096786;28;20400;-75
2021/05/03 06:30:32;;;;;;;7.95;5.03;;;;;;;;;;5095641;28;20040;-75
2021/05/03 06:32:58;;;;;;;9.20;4.88;;;;;;;;;;5096086;28;20369;-75
2021/05/03 06:35:23;;;;;;;15.30;5.80;;;;;;;;;;5096607;28;20044;-75
2021/05/03 06:37:50;;;;;;;10.63;4.88;;;;;;;;;;5096535;28;20059;-76
2021/05/03 06:40:16;;;;;;;8.05;4.50;;;;;;;;;;5096684;28;20040;-75
2021/05/03 06:42:41;;;;;;;6.95;4.25;;;;;;;;;;5096364;28;20048;-74
2021/05/03 06:45:08;;;;;;;7.57;3.90;;;;;;;;;;5096549;28;20128;-75
2021/05/03 06:47:34;;;;;;;7.63;4.80;;;;;;;;;;5096097;28;20028;-73
2021/05/03 06:50:00;;;;;;;7.80;3.80;;;;;;;;;;5096362;28;20040;-74
2021/05/03 06:52:25;;;;;;;7.75;3.72;;;;;;;;;;5096978;28;20038;-74
2021/05/03 06:54:51;;;;;;;5.68;3.60;;;;;;;;;;5096386;28;20070;-75
2021/05/03 06:57:16;;;;;;;4.68;3.25;;;;;;;;;;5096194;28;20027;-76
2021/05/03 06:59:42;;;;;;;5.40;3.08;;;;;;;;;;5096114;28;20101;-73
2021/05/03 07:02:10;;;;;;;7.30;3.30;;;;;;;;;;5095645;28;20071;-74
2021/05/03 07:04:35;;;;;;;5.10;3.50;;;;;;;;;;5095493;28;20036;-73
2021/05/03 07:07:01;;;;;;;7.63;3.15;;;;;;;;;;5095951;28;20032;-73
2021/05/03 07:09:26;;;;;;;5.63;3.00;;;;;;;;;;5095946;28;20032;-72
2021/05/03 07:11:52;;;;;;;4.97;2.67;;;;;;;;;;5095689;28;20036;-72
2021/05/03 07:14:18;;;;;;;5.10;3.42;;;;;;;;;;5095805;28;20036;-72
2021/05/03 07:16:43;;;;;;;9.40;3.30;;;;;;;;;;5092685;28;20036;-72
2021/05/03 07:19:09;;;;;;;7.03;3.28;;;;;;;;;;5095413;28;20058;-74
2021/05/03 07:21:36;;;;;;;4.70;3.10;;;;;;;;;;5095594;28;20032;-73
2021/05/03 07:24:02;;;;;;;8.10;3.20;;;;;;;;;;5094667;28;20470;-71
2021/05/03 07:26:28;;;;;;;6.90;4.32;;;;;;;;;;5094312;28;20036;-73
2021/05/03 07:28:53;;;;;;;4.70;2.70;;;;;;;;;;5095466;28;20539;-73
2021/05/03 07:31:19;;;;;;;4.18;2.80;;;;;;;;;;5095373;28;20397;-73
2021/05/03 07:33:44;;;;;;;3.97;2.90;;;;;;;;;;5095161;28;20070;-73
2021/05/03 07:36:09;;;;;;;5.05;2.78;;;;;;;;;;5095308;28;20478;-73
2021/05/03 07:38:35;;;;;;;2.92;2.60;;;;;;;;;;5095458;28;20040;-72
2021/05/03 07:41:01;;;;;;;5.53;3.08;;;;;;;;;;5095097;28;20090;-73
2021/05/03 07:43:26;;;;;;;3.83;2.58;;;;;;;;;;5094092;28;20133;-74
2021/05/03 07:45:51;;;;;;;4.32;2.88;;;;;;;;;;5095255;28;20367;-75
2021/05/03 07:48:17;;;;;;;7.55;2.80;;;;;;;;;;5079638;28;20058;-74
2021/05/03 07:50:43;;;;;;;4.30;2.90;;;;;;;;;;5074509;28;20102;-74
2021/05/03 07:53:08;;;;;;;4.18;2.40;;;;;;;;;;5074922;28;20111;-74
2021/05/03 07:55:34;;;;;;;3.42;2.60;;;;;;;;;;5075134;28;20063;-74
2021/05/03 07:58:00;;;;;;;4.80;3.03;;;;;;;;;;5074548;28;20066;-74
2021/05/03 08:00:25;;;;;;;5.15;2.72;;;;;;;;;;5073406;28;20036;-74
2021/05/03 08:02:51;;;;;;;4.90;2.30;;;;;;;;;;5073071;28;20489;-74
2021/05/03 08:05:17;;;;;;;5.63;3.38;;;;;;;;;;5074839;28;20131;-73
2021/05/03 08:07:42;;;;;;;5.25;2.75;;;;;;;;;;5073273;28;20115;-73
2021/05/03 08:10:08;;;;;;;4.07;2.40;;;;;;;;;;5074579;28;20032;-74
2021/05/03 08:12:33;;;;;;;5.43;2.45;;;;;;;;;;5073177;28;20535;-74
2021/05/03 08:15:04;;;;;;;4.97;2.60;;;;;;;;;;5083390;28;20028;-74
2021/05/03 08:17:30;;;;;;;5.03;2.92;;;;;;;;;;5093705;28;20065;-74
2021/05/03 08:19:55;;;;;;;4.00;2.63;;;;;;;;;;5094528;28;20028;-73
2021/05/03 08:22:21;;;;;;;6.13;2.30;;;;;;;;;;5094708;28;20044;-74
2021/05/03 08:24:46;;;;;;;4.03;2.30;;;;;;;;;;5093918;28;20052;-73
2021/05/03 08:27:12;;;;;;;4.45;2.70;;;;;;;;;;5094322;28;20040;-74
2021/05/03 08:29:37;;;;;;;4.40;2.45;;;;;;;;;;5093829;28;20114;-75
2021/05/03 08:32:04;;;;;;;7.78;3.15;;;;;;;;;;5094453;28;20528;-74
2021/05/03 08:34:29;;;;;;;5.63;3.10;;;;;;;;;;5094433;28;20040;-73
2021/05/03 08:36:56;;;;;;;4.72;3.10;;;;;;;;;;5093971;28;20039;-73
2021/05/03 08:39:23;;;;;;;5.75;2.85;;;;;;;;;;5092895;28;20386;-73
2021/05/03 08:41:49;;;;;;;5.63;2.67;;;;;;;;;;5092327;28;20511;-72
2021/05/03 08:44:14;;;;;;;11.23;2.80;;;;;;;;;;5093842;28;20035;-73
2021/05/03 08:46:43;;;;;;;5.18;3.10;;;;;;;;;;5094126;28;20089;-74
2021/05/03 08:49:30;;;;;;;4.90;2.95;;;;;;;;;;5094012;28;20039;-74
2021/05/03 08:54:45;;;;;;;5.75;2.90;;;;;;;;;;5083509;28;20052;-74
2021/05/03 08:57:13;;;;;;;4.32;2.53;;;;;;;;;;5093507;28;20485;-73
2021/05/03 08:59:39;;;;;;;3.95;2.80;;;;;;;;;;5094143;28;20078;-74
2021/05/03 09:02:06;;;;;;;8.88;3.78;;;;;;;;;;5093652;28;20028;-74
2021/05/03 09:04:33;;;;;;;4.50;2.78;;;;;;;;;;5093807;28;20036;-73
2021/05/03 09:07:04;;;;;;;5.57;3.50;;;;;;;;;;5093536;28;20071;-74
2021/05/03 09:09:35;;;;;;;8.40;3.83;;;;;;;;;;5092946;28;20517;-74
2021/05/03 09:12:22;;;;;;;7.00;3.45;;;;;;;;;;5092058;28;20031;-74
2021/05/03 09:14:51;;;;;;;5.72;3.20;;;;;;;;;;5093254;28;20063;-74
2021/05/03 09:17:25;;;;;;;6.38;3.70;;;;;;;;;;5092202;28;20028;-74
2021/05/03 09:19:52;;;;;;;10.95;5.57;;;;;;;;;;5093585;28;20047;-74
2021/05/03 09:22:29;;;;;;;6.90;3.90;;;;;;;;;;5093609;28;20036;-74
2021/05/03 09:25:24;;;;;;;13.75;3.97;;;;;;;;;;5093139;28;20047;-74
2021/05/03 09:28:09;;;;;;;15.27;5.50;;;;;;;;;;5093156;28;20039;-76
2021/05/03 09:30:43;;;;;;;11.75;3.92;;;;;;;;;;5093505;28;20119;-75
2021/05/03 09:33:23;;;;;;;5.25;2.72;;;;;;;;;;5093520;28;20123;-74
2021/05/03 09:35:55;;;;;;;12.00;2.75;;;;;;;;;;5093606;28;20036;-74
2021/05/03 09:38:32;;;;;;;5.05;2.63;;;;;;;;;;5091955;28;20043;-75
2021/05/03 09:41:24;;;;;;;4.13;2.63;;;;;;;;;;5092946;28;20124;-74
2021/05/03 09:44:02;;;;;;;6.07;2.70;;;;;;;;;;5051401;28;20529;-74
2021/05/03 09:46:39;;;;;;;9.93;2.90;;;;;;;;;;5052991;28;20040;-75
2021/05/03 09:49:14;;;;;;;4.07;2.88;;;;;;;;;;5053012;28;20048;-74
2021/05/03 09:51:44;;;;;;;7.05;2.63;;;;;;;;;;5051815;28;20067;-74
2021/05/03 09:54:14;;;;;;;5.85;2.50;;;;;;;;;;5053150;28;20052;-74
2021/05/03 09:56:48;;;;;;;5.13;2.35;;;;;;;;;;5052859;28;20033;-71
2021/05/03 09:59:33;;;;;;;14.77;2.72;;;;;;;;;;5052345;28;20041;-77
2021/05/03 10:02:07;;;;;;;10.07;2.30;;;;;;;;;;5078608;28;20039;-73
2021/05/03 10:04:34;;;;;;;3.15;1.80;;;;;;;;;;5080246;28;20081;-72
2021/05/03 10:07:00;;;;;;;5.97;2.50;;;;;;;;;;5091594;28;20039;-72
2021/05/03 10:09:26;;;;;;;12.95;2.50;;;;;;;;;;5092754;28;20028;-72
2021/05/03 10:11:53;;;;;;;17.38;4.45;;;;;;;;;;5091708;28;20032;-73
2021/05/03 10:14:20;;;;;;;9.38;2.03;;;;;;;;;;5093035;28;20028;-72
2021/05/03 10:16:46;;;;;;;8.32;2.28;;;;;;;;;;5092680;28;20039;-72
2021/05/03 10:19:14;;;;;;;4.93;1.80;;;;;;;;;;5091760;28;20454;-72
2021/05/03 10:21:43;;;;;;;4.40;1.90;;;;;;;;;;5092972;28;20486;-72
2021/05/03 10:24:09;;;;;;;4.97;1.48;;;;;;;;;;5093253;28;20123;-72
2021/05/03 10:26:35;;;;;;;3.70;2.00;;;;;;;;;;5092882;28;20504;-72
2021/05/03 10:29:01;;;;;;;11.70;2.00;;;;;;;;;;5092925;28;20116;-73
2021/05/03 10:31:26;;;;;;;4.07;2.10;;;;;;;;;;5092612;28;20028;-72
2021/05/03 10:33:53;;;;;;;7.05;1.77;;;;;;;;;;5091734;28;20377;-72
2021/05/03 10:36:33;;;;;;;5.88;1.70;;;;;;;;;;5091600;28;20044;-72
2021/05/03 10:38:58;;;;;;;3.90;1.50;;;;;;;;;;5092776;28;20034;-72
2021/05/03 10:41:31;;;;;;;5.75;1.40;;;;;;;;;;5095813;28;20376;-73
2021/05/03 10:44:24;;;;;;;2.85;1.48;;;;;;;;;;5095389;28;20031;-72
2021/05/03 10:49:20;;;;;;;4.43;1.33;;;;;;;;;;5096230;28;20473;-72
2021/05/03 10:52:20;;;;;;;2.63;1.63;;;;;;;;;;5095125;28;20035;-72
2021/05/03 10:54:48;;;;;;;6.63;1.75;;;;;;;;;;5095037;28;20048;-72
2021/05/03 10:57:17;;;;;;;1.92;1.70;;;;;;;;;;5094851;28;20078;-72
2021/05/03 11:00:00;;;;;;;4.32;1.80;;;;;;;;;;5096089;28;20497;-71
2021/05/03 11:02:43;;;;;;;4.80;1.60;;;;;;;;;;5095841;28;20039;-71
2021/05/03 11:05:28;;;;;;;33.85;2.80;;;;;;;;;;5096147;28;20063;-73
2021/05/03 11:08:03;;;;;;;21.60;2.05;;;;;;;;;;5095797;28;20064;-73
2021/05/03 11:10:58;;;;;;;9.05;1.60;;;;;;;;;;5095878;28;20538;-74
2021/05/03 11:13:36;;;;;;;9.05;1.95;;;;;;;;;;5095890;28;20023;-76
2021/05/03 11:16:34;;;;;;;2.72;1.50;;;;;;;;;;5095691;28;20067;-76
2021/05/03 11:19:01;;;;;;;5.18;1.30;;;;;;;;;;5083505;28;20055;-75
2021/05/03 11:21:41;;;;;;;4.38;1.60;;;;;;;;;;5095760;28;20028;-76
2021/05/03 11:24:38;;;;;;;3.75;1.50;;;;;;;;;;5092657;28;20478;-76
2021/05/03 11:29:47;;;;;;;3.10;1.38;;;;;;;;;;5095741;28;20052;-76
2021/05/03 11:32:14;;;;;;;6.00;1.50;;;;;;;;;;5095423;28;20032;-72
2021/05/03 11:34:59;;;;;;;5.53;1.52;;;;;;;;;;5094545;28;20492;-72
2021/05/03 11:37:33;;;;;;;2.55;1.92;;;;;;;;;;5093799;28;20915;-72
2021/05/03 11:40:13;;;;;;;5.40;2.42;;;;;;;;;;5094129;28;20050;-72
2021/05/03 11:45:28;;;;;;;2.63;1.65;;;;;;;;;;5095361;28;20113;-72
2021/05/03 11:47:55;;;;;;;2.03;1.33;;;;;;;;;;5095266;28;20036;-72
2021/05/03 11:50:22;;;;;;;2.67;1.40;;;;;;;;;;5095076;28;20074;-72
2021/05/03 11:52:48;;;;;;;33.45;2.70;;;;;;;;;;5095225;28;20465;-72
2021/05/03 11:55:22;;;;;;;24.15;2.10;;;;;;;;;;5095014;28;20028;-72
2021/05/03 11:57:48;;;;;;;47.33;2.42;;;;;;;;;;5093172;28;20041;-72
2021/05/03 12:00:25;;;;;;;16.33;2.10;;;;;;;;;;5094887;28;20441;-72
2021/05/03 12:03:20;;;;;;;25.63;2.10;;;;;;;;;;5095213;28;20043;-72
2021/05/03 12:05:46;;;;;;;49.35;2.47;;;;;;;;;;5089910;28;20056;-72
2021/05/03 12:08:15;;;;;;;7.93;1.50;;;;;;;;;;5094745;28;20427;-71
2021/05/03 12:10:41;;;;;;;8.98;1.77;;;;;;;;;;5094503;28;20461;-72
2021/05/03 12:13:18;;;;;;;2.72;1.50;;;;;;;;;;5093293;28;20495;-72
2021/05/03 12:15:43;;;;;;;1.55;1.33;;;;;;;;;;5094835;28;20039;-71
2021/05/03 12:18:08;;;;;;;3.15;1.65;;;;;;;;;;5094466;28;20496;-71
2021/05/03 12:20:34;;;;;;;7.85;1.52;;;;;;;;;;5094269;28;20068;-71
2021/05/03 12:23:03;;;;;;;3.20;1.42;;;;;;;;;;5094356;28;20032;-71
2021/05/03 12:25:51;;;;;;;1.60;1.40;;;;;;;;;;5094221;28;20116;-72
2021/05/03 12:28:22;;;;;;;2.17;1.25;;;;;;;;;;5094204;28;20028;-72
2021/05/03 12:30:49;;;;;;;2.75;1.45;;;;;;;;;;5094289;28;20085;-72
2021/05/03 12:33:19;;;;;;;5.85;1.60;;;;;;;;;;5092894;28;20035;-72
2021/05/03 12:35:50;;;;;;;4.63;1.70;;;;;;;;;;5094223;28;20067;-73
2021/05/03 12:38:20;;;;;;;2.53;1.60;;;;;;;;;;5093833;28;20077;-73
2021/05/03 12:40:46;;;;;;;2.45;1.55;;;;;;;;;;5093767;28;20035;-74
2021/05/03 12:43:12;;;;;;;5.05;1.98;;;;;;;;;;5093772;28;20089;-72
2021/05/03 12:51:15;;;;;;;3.65;1.58;;;;;;;;;;5092858;28;20589;-73
2021/05/03 12:59:25;;;;;;;2.55;1.40;;;;;;;;;;5094026;28;20124;-72
2021/05/03 13:02:04;;;;;;;3.75;1.88;;;;;;;;;;5093969;28;20082;-72
2021/05/03 13:04:43;;;;;;;2.25;1.38;;;;;;;;;;5093407;28;20032;-72
2021/05/03 13:10:28;;;;;;;1.48;1.15;;;;;;;;;;5093812;28;20063;-73
2021/05/03 13:29:57;;;;;;;2.10;1.40;;;;;;;;;;5053041;28;20044;-72
2021/05/03 13:32:27;;;;;;;2.13;1.30;;;;;;;;;;5053345;28;20049;-73
2021/05/03 13:34:53;;;;;;;1.40;1.30;;;;;;;;;;5051794;28;20033;-72
2021/05/03 13:37:19;;;;;;;1.15;1.02;;;;;;;;;;5053002;28;20044;-72
2021/05/03 13:39:45;;;;;;;1.80;1.38;;;;;;;;;;5052898;28;20521;-73
2021/05/03 13:42:11;;;;;;;6.65;2.05;;;;;;;;;;5052809;28;20127;-72
2021/05/03 13:44:38;;;;;;;3.78;1.52;;;;;;;;;;5053193;28;20031;-72
2021/05/03 13:47:04;;;;;;;2.50;1.55;;;;;;;;;;5068375;28;20036;-72
2021/05/03 13:49:30;;;;;;;2.85;1.40;;;;;;;;;;5092044;28;20043;-72
2021/05/03 13:51:57;;;;;;;1.58;1.48;;;;;;;;;;5092122;28;20043;-73
2021/05/03 13:54:23;;;;;;;3.40;2.00;;;;;;;;;;5093267;28;20396;-72
2021/05/03 13:56:48;;;;;;;6.35;1.77;;;;;;;;;;5092982;28;20038;-72
2021/05/03 13:59:14;;;;;;;3.70;1.42;;;;;;;;;;5092075;28;20044;-73
2021/05/03 14:01:39;;;;;;;2.35;1.35;;;;;;;;;;5092501;28;20478;-72
2021/05/03 14:04:05;;;;;;;2.67;1.45;;;;;;;;;;5093116;28;20114;-72
2021/05/03 14:06:30;;;;;;;5.45;1.58;;;;;;;;;;5092903;28;20052;-72
2021/05/03 14:08:56;;;;;;;1.98;1.30;;;;;;;;;;5093304;28;20485;-72
2021/05/03 14:11:22;;;;;;;2.65;1.40;;;;;;;;;;5092968;28;20039;-72
2021/05/03 14:13:47;;;;;;;2.22;1.20;;;;;;;;;;5091513;28;20074;-73
2021/05/03 14:16:13;;;;;;;0.80;0.80;;;;;;;;;;5096189;28;20071;-72
2021/05/03 14:18:39;;;;;;;2.10;1.27;;;;;;;;;;5097033;28;20064;-73
2021/05/03 14:21:08;;;;;;;2.47;1.25;;;;;;;;;;5097077;28;20028;-73
2021/05/03 14:23:34;;;;;;;2.28;1.17;;;;;;;;;;5097083;28;20044;-73
2021/05/03 14:26:01;;;;;;;5.03;1.60;;;;;;;;;;5095793;28;20188;-72
2021/05/03 14:30:59;;;;;;;2.53;1.35;;;;;;;;;;5097067;28;20034;-72
2021/05/03 14:33:27;;;;;;;2.00;1.60;;;;;;;;;;5096797;28;20040;-73
2021/05/03 14:35:53;;;;;;;1.95;1.45;;;;;;;;;;5096872;28;20040;-73
2021/05/03 14:38:18;;;;;;;2.35;1.45;;;;;;;;;;5096067;28;20457;-72
2021/05/03 14:40:44;;;;;;;2.78;1.30;;;;;;;;;;5096219;28;20040;-70
2021/05/03 14:43:12;;;;;;;2.38;1.30;;;;;;;;;;5095195;28;20424;-73
2021/05/03 14:46:29;;;;;;;2.25;1.17;;;;;;;;;;5095306;28;20581;-71
2021/05/03 14:53:39;;;;;;;2.35;1.20;;;;;;;;;;5096509;28;20370;-72
2021/05/03 14:56:05;;;;;;;2.38;1.10;;;;;;;;;;5094998;28;20044;-72
2021/05/03 14:58:32;;;;;;;2.25;1.20;;;;;;;;;;5094903;28;20150;-72
2021/05/03 15:00:57;;;;;;;4.80;1.80;;;;;;;;;;5096267;28;20043;-72
2021/05/03 15:03:25;;;;;;;1.00;0.90;;;;;;;;;;5095029;28;20044;-72
2021/05/03 15:05:53;;;;;;;3.40;1.17;;;;;;;;;;5096251;28;20489;-71
2021/05/03 15:08:19;;;;;;;2.03;1.40;;;;;;;;;;5096182;28;20042;-72
2021/05/03 15:10:44;;;;;;;4.05;1.85;;;;;;;;;;5094510;28;20111;-72
2021/05/03 15:13:16;;;;;;;2.60;1.70;;;;;;;;;;5096070;28;20110;-73
2021/05/03 15:15:48;;;;;;;4.43;2.10;;;;;;;;;;5094602;28;20067;-71
2021/05/03 15:18:34;;;;;;;1.75;1.30;;;;;;;;;;5095475;28;20028;-71
2021/05/03 15:23:44;;;;;;;5.50;1.42;;;;;;;;;;5078928;28;20401;-71
2021/05/03 15:26:14;;;;;;;8.98;1.90;;;;;;;;;;5074246;28;20093;-72
2021/05/03 15:34:13;;;;;;;2.05;1.00;;;;;;;;;;5075249;28;20469;-72
2021/05/03 15:36:38;;;;;;;2.22;1.42;;;;;;;;;;5075115;28;20044;-72
2021/05/03 15:39:06;;;;;;;9.68;4.65;;;;;;;;;;5073839;28;20044;-71
2021/05/03 15:41:32;;;;;;;2.88;1.70;;;;;;;;;;5091635;28;20044;-71
2021/05/03 15:44:00;;;;;;;4.38;1.73;;;;;;;;;;5084830;28;20047;-71
2021/05/03 15:46:26;;;;;;;2.72;1.30;;;;;;;;;;5074660;28;20033;-71
2021/05/03 15:48:51;;;;;;;3.65;1.67;;;;;;;;;;5075043;28;20085;-71
2021/05/03 15:51:17;;;;;;;2.58;1.40;;;;;;;;;;5085773;28;20389;-71
2021/05/03 15:53:43;;;;;;;3.72;2.10;;;;;;;;;;5071760;28;20044;-71
2021/05/03 15:56:09;;;;;;;4.32;1.63;;;;;;;;;;5090597;28;20024;-71
2021/05/03 15:58:35;;;;;;;2.08;1.00;;;;;;;;;;5078730;28;20036;-71
2021/05/03 16:01:00;;;;;;;4.97;1.33;;;;;;;;;;5094801;28;20089;-72
2021/05/03 16:03:27;;;;;;;1.00;0.90;;;;;;;;;;5094933;28;20044;-72